createdAt,value
2023-01-23T00:02:13.593Z,1.80
2023-01-23T00:05:16.819Z,1.75
2023-01-23T00:08:21.651Z,1.79
2023-01-23T00:11:28.446Z,1.80
2023-01-23T00:14:32.827Z,1.80
2023-01-23T00:17:35.877Z,1.76
2023-01-23T00:20:39.123Z,1.73
2023-01-23T00:23:44.294Z,1.76
2023-01-23T00:26:47.521Z,1.77
2023-01-23T00:29:55.418Z,1.76
2023-01-23T00:32:58.530Z,1.81
2023-01-23T00:36:03.097Z,1.77
2023-01-23T00:39:15.485Z,1.77
2023-01-23T00:42:20.324Z,1.74
2023-01-23T00:45:25.087Z,1.70
2023-01-23T00:48:28.263Z,1.72
2023-01-23T00:51:32.705Z,1.75
2023-01-23T00:54:38.268Z,1.79
2023-01-23T00:57:41.347Z,1.74
2023-01-23T01:00:45.795Z,1.76
2023-01-23T01:03:48.958Z,1.75
2023-01-23T01:06:51.952Z,1.77
2023-01-23T01:09:57.734Z,1.77
2023-01-23T01:13:03.582Z,1.78
2023-01-23T01:16:09.454Z,1.78
2023-01-23T01:19:16.648Z,1.77
2023-01-23T01:22:20.130Z,1.81
2023-01-23T01:25:23.599Z,1.75
2023-01-23T01:28:30.234Z,1.76
2023-01-23T01:31:36.050Z,1.75
2023-01-23T01:34:39.108Z,1.76
2023-01-23T01:37:42.838Z,1.78
2023-01-23T01:40:48.097Z,1.79
2023-01-23T01:43:53.306Z,1.75
2023-01-23T01:46:58.262Z,1.78
2023-01-23T01:50:06.065Z,1.85
2023-01-23T01:53:09.263Z,1.91
2023-01-23T01:56:15.332Z,1.92
2023-01-23T01:59:20.052Z,1.89
2023-01-23T02:02:29.712Z,1.85
2023-01-23T02:05:37.609Z,1.82
2023-01-23T02:08:49.116Z,1.87
2023-01-23T02:11:52.366Z,1.88
2023-01-23T02:14:59.554Z,1.89
2023-01-23T02:18:04.151Z,1.86
2023-01-23T02:21:10.030Z,1.89
2023-01-23T02:24:27.025Z,1.93
2023-01-23T02:27:31.391Z,1.93
2023-01-23T02:30:34.713Z,1.87
2023-01-23T02:33:53.934Z,1.79
2023-01-23T02:36:57.451Z,1.87
2023-01-23T02:40:02.772Z,1.85
2023-01-23T02:43:16.041Z,1.82
2023-01-23T02:46:26.630Z,1.81
2023-01-23T02:49:30.568Z,1.78
2023-01-23T02:52:34.232Z,1.82
2023-01-23T02:55:39.344Z,1.85
2023-01-23T02:59:02.209Z,1.83
2023-01-23T03:02:06.204Z,1.85
2023-01-23T03:05:10.580Z,1.88
2023-01-23T03:08:13.565Z,1.87
2023-01-23T03:11:18.622Z,1.88
2023-01-23T03:14:24.997Z,1.89
2023-01-23T03:17:29.182Z,1.89
2023-01-23T03:20:39.153Z,1.85
2023-01-23T03:23:44.638Z,1.89
2023-01-23T03:26:49.706Z,1.89
2023-01-23T03:30:12.388Z,1.80
2023-01-23T03:33:16.291Z,1.85
2023-01-23T03:36:19.341Z,1.85
2023-01-23T03:39:40.374Z,1.85
2023-01-23T03:42:43.730Z,1.82
2023-01-23T03:45:53.179Z,1.83
2023-01-23T03:48:56.645Z,1.84
2023-01-23T03:52:00.891Z,1.83
2023-01-23T03:55:06.534Z,1.86
2023-01-23T03:58:10.813Z,1.83
2023-01-23T04:01:18.579Z,1.84
2023-01-23T04:04:22.097Z,1.88
2023-01-23T04:07:25.178Z,1.86
2023-01-23T04:10:29.014Z,1.82
2023-01-23T04:13:38.639Z,1.84
2023-01-23T04:16:45.633Z,1.86
2023-01-23T04:19:49.384Z,1.81
2023-01-23T04:22:52.404Z,1.86
2023-01-23T04:25:59.589Z,1.88
2023-01-23T04:29:02.774Z,1.82
2023-01-23T04:32:09.547Z,1.80
2023-01-23T04:35:16.840Z,1.85
2023-01-23T04:38:20.288Z,1.81
2023-01-23T04:41:27.167Z,1.77
2023-01-23T04:44:37.532Z,1.75
2023-01-23T04:48:02.079Z,1.79
2023-01-23T04:51:07.791Z,1.76
2023-01-23T04:54:11.518Z,1.73
2023-01-23T04:57:14.573Z,1.79
2023-01-23T05:00:20.135Z,1.78
2023-01-23T05:03:24.643Z,1.84
2023-01-23T05:06:28.199Z,1.83
2023-01-23T05:09:33.238Z,1.75
2023-01-23T05:12:36.273Z,1.75
2023-01-23T05:15:40.194Z,1.78
2023-01-23T05:18:45.066Z,1.79
2023-01-23T05:21:48.254Z,1.75
2023-01-23T05:24:54.264Z,1.77
2023-01-23T05:27:57.593Z,1.75
2023-01-23T05:31:01.439Z,1.73
2023-01-23T05:34:15.424Z,1.74
2023-01-23T05:37:18.452Z,1.78
2023-01-23T05:40:56.395Z,1.77
2023-01-23T05:44:25.336Z,1.71
2023-01-23T05:47:32.459Z,1.73
2023-01-23T05:50:37.596Z,1.76
2023-01-23T05:53:40.647Z,1.78
2023-01-23T05:56:44.330Z,1.71
2023-01-23T06:00:07.854Z,1.69
2023-01-23T06:03:43.111Z,1.70
2023-01-23T06:07:10.425Z,1.78
2023-01-23T06:10:13.592Z,1.78
2023-01-23T06:13:16.702Z,1.76
2023-01-23T06:16:19.954Z,1.75
2023-01-23T06:19:23.117Z,1.77
2023-01-23T06:22:30.064Z,1.75
2023-01-23T06:25:39.763Z,1.74
2023-01-23T06:28:45.700Z,1.77
2023-01-23T06:31:49.581Z,1.82
2023-01-23T06:34:54.210Z,1.76
2023-01-23T06:37:58.610Z,1.76
2023-01-23T06:41:02.071Z,1.74
2023-01-23T06:44:22.444Z,1.73
2023-01-23T06:47:26.646Z,1.75
2023-01-23T06:50:35.014Z,1.73
2023-01-23T06:53:39.712Z,1.73
2023-01-23T06:56:42.969Z,1.68
2023-01-23T06:59:48.452Z,1.71
2023-01-23T07:02:58.825Z,1.77
2023-01-23T07:06:06.591Z,1.68
2023-01-23T07:09:11.345Z,1.70
2023-01-23T07:12:14.885Z,1.70
2023-01-23T07:15:18.707Z,1.66
2023-01-23T07:18:22.860Z,1.65
2023-01-23T07:21:26.288Z,1.70
2023-01-23T07:24:32.664Z,1.66
2023-01-23T07:27:36.273Z,1.63
2023-01-23T07:31:25.533Z,1.56
2023-01-23T07:34:25.221Z,1.53
2023-01-23T07:37:28.225Z,1.50
2023-01-23T07:40:32.645Z,1.56
2023-01-23T07:43:35.701Z,1.57
2023-01-23T07:46:38.837Z,1.59
2023-01-23T07:49:42.208Z,1.57
2023-01-23T07:52:45.377Z,1.66
2023-01-23T07:55:49.723Z,1.70
2023-01-23T07:58:54.750Z,1.78
2023-01-23T08:02:02.026Z,1.79
2023-01-23T08:05:08.633Z,1.72
2023-01-23T08:08:13.781Z,1.72
2023-01-23T08:11:18.453Z,1.65
2023-01-23T08:14:24.864Z,1.70
2023-01-23T08:17:28.070Z,1.69
2023-01-23T08:20:31.087Z,1.60
2023-01-23T08:23:35.875Z,1.64
2023-01-23T08:26:41.778Z,1.64
2023-01-23T08:29:45.510Z,1.62
2023-01-23T08:32:51.863Z,1.58
2023-01-23T08:35:58.411Z,1.63
2023-01-23T08:39:01.576Z,1.68
2023-01-23T08:42:06.200Z,1.69
2023-01-23T08:45:10.742Z,1.68
2023-01-23T08:48:13.974Z,1.65
2023-01-23T08:51:17.286Z,1.62
2023-01-23T08:54:25.725Z,1.69
2023-01-23T08:57:31.180Z,1.74
2023-01-23T09:00:35.309Z,1.80
2023-01-23T09:03:39.364Z,1.83
2023-01-23T09:06:42.700Z,1.84
2023-01-23T09:09:45.897Z,1.88
2023-01-23T09:12:52.742Z,1.92
2023-01-23T09:15:55.757Z,1.88
2023-01-23T09:18:58.732Z,1.85
2023-01-23T09:22:03.496Z,1.83
2023-01-23T09:25:08.316Z,1.91
2023-01-23T09:28:12.959Z,1.94
2023-01-23T09:31:16.543Z,2.00
2023-01-23T09:34:20.826Z,1.91
2023-01-23T09:37:24.269Z,1.91
2023-01-23T09:40:32.571Z,1.93
2023-01-23T09:43:46.407Z,2.01
2023-01-23T09:46:52.607Z,1.98
2023-01-23T09:50:00.919Z,1.95
2023-01-23T09:53:13.157Z,2.01
2023-01-23T09:56:30.564Z,2.08
2023-01-23T09:59:53.968Z,2.02
2023-01-23T10:03:04.732Z,2.06
2023-01-23T10:06:23.499Z,2.03
2023-01-23T10:09:43.335Z,2.07
2023-01-23T10:12:58.981Z,2.09
2023-01-23T10:16:21.799Z,2.15
2023-01-23T10:19:42.959Z,2.18
2023-01-23T10:22:55.586Z,2.19
2023-01-23T10:25:59.505Z,2.21
2023-01-23T10:29:13.090Z,2.21
2023-01-23T10:32:28.941Z,2.25
2023-01-23T10:35:41.190Z,2.29
2023-01-23T10:38:53.370Z,2.33
2023-01-23T10:42:02.565Z,2.31
2023-01-23T10:45:08.584Z,2.39
2023-01-23T10:48:40.351Z,2.25
2023-01-23T10:51:48.220Z,2.36
2023-01-23T10:54:51.164Z,2.25
2023-01-23T10:57:56.985Z,2.27
2023-01-23T11:01:04.856Z,2.28
2023-01-23T11:04:20.967Z,2.28
2023-01-23T11:07:25.676Z,2.35
2023-01-23T11:10:53.348Z,2.35
2023-01-23T11:14:12.577Z,2.39
2023-01-23T11:17:21.416Z,2.34
2023-01-23T11:20:31.309Z,2.39
2023-01-23T11:23:35.569Z,2.35
2023-01-23T11:26:39.904Z,2.27
2023-01-23T11:30:14.685Z,2.23
2023-01-23T11:33:35.852Z,2.21
2023-01-23T11:36:53.551Z,2.26
2023-01-23T11:40:04.863Z,2.23
2023-01-23T11:43:15.167Z,2.22
2023-01-23T11:46:38.177Z,2.30
2023-01-23T11:50:04.305Z,2.37
2023-01-23T11:53:27.875Z,2.37
2023-01-23T11:56:57.649Z,2.34
2023-01-23T12:00:17.465Z,2.32
2023-01-23T12:04:19.370Z,2.44
2023-01-23T12:08:03.831Z,2.47
2023-01-23T12:11:16.762Z,2.51
2023-01-23T12:14:27.773Z,2.42
2023-01-23T12:17:43.763Z,2.44
2023-01-23T12:21:01.314Z,2.52
2023-01-23T12:24:19.301Z,2.53
2023-01-23T12:27:37.509Z,2.47
2023-01-23T12:31:20.244Z,2.46
2023-01-23T12:34:46.450Z,2.46
2023-01-23T12:38:07.926Z,2.51
2023-01-23T12:41:22.287Z,2.49
2023-01-23T12:44:36.040Z,2.56
2023-01-23T12:47:44.270Z,2.56
2023-01-23T12:50:52.811Z,2.54
2023-01-23T12:53:59.724Z,2.61
2023-01-23T12:57:05.947Z,2.72
2023-01-23T13:00:24.323Z,2.76
2023-01-23T13:03:58.634Z,2.60
2023-01-23T13:07:23.636Z,2.64
2023-01-23T13:11:16.411Z,2.70
2023-01-23T13:14:31.475Z,2.62
2023-01-23T13:17:49.334Z,2.59
2023-01-23T13:21:16.449Z,2.64
2023-01-23T13:25:03.363Z,2.48
2023-01-23T13:28:44.592Z,2.59
2023-01-23T13:31:51.705Z,2.57
2023-01-23T13:34:56.383Z,2.60
2023-01-23T13:38:00.367Z,2.57
2023-01-23T13:41:39.091Z,2.58
2023-01-23T13:45:27.241Z,2.59
2023-01-23T14:21:18.705Z,2.38
2023-01-23T14:24:25.069Z,2.40
2023-01-23T14:27:52.286Z,2.45
2023-01-23T14:31:06.215Z,2.51
2023-01-23T14:34:18.997Z,2.41
2023-01-23T14:37:26.901Z,2.41
2023-01-23T14:40:40.077Z,2.45
2023-01-23T14:43:51.689Z,2.42
2023-01-23T14:47:04.184Z,2.44
2023-01-23T14:50:23.173Z,2.38
2023-01-23T14:53:30.755Z,2.45
2023-01-23T14:56:39.311Z,2.44
2023-01-23T14:59:50.680Z,2.45
2023-01-23T15:02:57.307Z,2.40
2023-01-23T15:06:09.333Z,2.39
2023-01-23T15:09:18.885Z,2.38
2023-01-23T15:12:25.001Z,2.47
2023-01-23T15:15:31.202Z,2.39
2023-01-23T15:18:37.597Z,2.41
2023-01-23T15:21:43.864Z,2.47
2023-01-23T15:24:50.655Z,2.37
2023-01-23T15:27:58.952Z,2.29
2023-01-23T15:31:05.135Z,2.30
2023-01-23T15:34:27.873Z,2.36
2023-01-23T15:37:31.060Z,2.29
2023-01-23T15:40:36.742Z,2.31
2023-01-23T15:43:39.865Z,2.28
2023-01-23T15:46:52.264Z,2.26
2023-01-23T15:49:55.587Z,2.25
2023-01-23T15:52:58.774Z,2.25
2023-01-23T15:56:05.030Z,2.27
2023-01-23T15:59:14.578Z,2.27
2023-01-23T16:02:30.752Z,2.23
2023-01-23T16:05:37.227Z,2.21
2023-01-23T16:08:43.664Z,2.18
2023-01-23T16:11:47.064Z,2.18
2023-01-23T16:14:50.108Z,2.16
2023-01-23T16:17:55.231Z,2.07
2023-01-23T16:21:00.971Z,2.05
2023-01-23T16:24:11.349Z,2.00
2023-01-23T16:27:31.015Z,2.03
2023-01-23T16:31:08.269Z,2.05
2023-01-23T16:34:24.067Z,2.02
2023-01-23T16:37:30.794Z,2.05
2023-01-23T16:40:38.106Z,2.09
2023-01-23T16:44:20.183Z,2.10
2023-01-23T16:47:31.781Z,2.07
2023-01-23T16:51:18.923Z,2.01
2023-01-23T16:54:31.532Z,1.99
2023-01-23T16:57:45.098Z,1.97
2023-01-23T17:01:02.818Z,1.93
2023-01-23T17:04:07.985Z,1.96
2023-01-23T17:07:26.342Z,1.95
2023-01-23T17:10:45.621Z,1.97
2023-01-23T17:13:56.033Z,1.91
2023-01-23T17:17:07.442Z,1.90
2023-01-23T17:20:15.143Z,1.86
2023-01-23T17:23:20.725Z,1.85
2023-01-23T17:26:25.284Z,1.94
2023-01-23T17:29:31.824Z,1.94
2023-01-23T17:32:47.547Z,2.01
2023-01-23T17:35:56.266Z,1.97
2023-01-23T17:39:07.721Z,1.92
2023-01-23T17:42:16.524Z,1.85
2023-01-23T17:45:26.733Z,1.85
2023-01-23T17:48:36.420Z,1.79
2023-01-23T17:51:46.101Z,1.81
2023-01-23T17:54:51.270Z,1.81
2023-01-23T17:57:54.760Z,1.82
2023-01-23T18:00:59.435Z,1.84
2023-01-23T18:04:12.360Z,1.75
2023-01-23T18:07:16.117Z,1.78
2023-01-23T18:10:22.631Z,1.80
2023-01-23T18:13:37.924Z,1.76
2023-01-23T18:16:45.647Z,1.71
2023-01-23T18:19:52.119Z,1.81
2023-01-23T18:22:56.824Z,1.85
2023-01-23T18:26:22.159Z,1.85
2023-01-23T18:30:51.144Z,1.85
2023-01-23T18:34:34.501Z,1.71
2023-01-23T18:37:57.460Z,1.70
2023-01-23T18:41:15.371Z,1.70
2023-01-23T18:44:31.417Z,1.71
2023-01-23T18:47:38.103Z,1.76
2023-01-23T18:50:49.151Z,1.77
2023-01-23T18:54:07.552Z,1.68
2023-01-23T18:57:58.143Z,1.69
2023-01-23T19:01:26.887Z,1.72
2023-01-23T19:04:45.952Z,1.69
2023-01-23T19:08:01.788Z,1.70
2023-01-23T19:11:20.347Z,1.66
2023-01-23T19:15:05.833Z,1.63
2023-01-23T19:18:39.220Z,1.65
2023-01-23T19:21:46.703Z,1.68
2023-01-23T19:24:52.732Z,1.71
2023-01-23T19:27:58.614Z,1.63
2023-01-23T19:31:09.745Z,1.67
2023-01-23T19:34:12.983Z,1.69
2023-01-23T19:37:15.995Z,1.63
2023-01-23T19:40:21.374Z,1.63
2023-01-23T19:43:28.097Z,1.65
2023-01-23T19:46:35.845Z,1.68
2023-01-23T19:49:39.169Z,1.70
2023-01-23T19:52:45.414Z,1.76
2023-01-23T19:55:48.428Z,1.69
2023-01-23T19:58:51.757Z,1.66
2023-01-23T20:01:56.396Z,1.67
2023-01-23T20:04:59.639Z,1.68
2023-01-23T20:08:08.411Z,1.64
2023-01-23T20:11:13.015Z,1.64
2023-01-23T20:14:23.599Z,1.61
2023-01-23T20:17:28.859Z,1.68
2023-01-23T20:20:32.282Z,1.68
2023-01-23T20:23:35.503Z,1.61
2023-01-23T20:26:39.259Z,1.65
2023-01-23T20:29:42.543Z,1.68
2023-01-23T20:32:46.914Z,1.63
2023-01-23T20:35:52.676Z,1.67
2023-01-23T20:38:58.468Z,1.64
2023-01-23T20:42:02.065Z,1.66
2023-01-23T20:45:07.215Z,1.60
2023-01-23T20:48:11.577Z,1.65
2023-01-23T20:51:17.104Z,1.64
2023-01-23T20:54:21.749Z,1.60
2023-01-23T20:57:45.499Z,1.69
2023-01-23T21:00:49.130Z,1.59
2023-01-23T21:03:53.951Z,1.69
2023-01-23T21:06:57.608Z,1.73
2023-01-23T21:10:00.708Z,1.71
2023-01-23T21:13:03.708Z,1.71
2023-01-23T21:16:09.883Z,1.68
2023-01-23T21:19:14.864Z,1.62
2023-01-23T21:22:18.665Z,1.63
2023-01-23T21:25:22.755Z,1.55
2023-01-23T21:28:26.554Z,1.60
2023-01-23T21:31:33.756Z,1.61
2023-01-23T21:34:38.555Z,1.55
2023-01-23T21:37:43.217Z,1.53
2023-01-23T21:40:46.587Z,1.47
2023-01-23T21:43:50.475Z,1.49
2023-01-23T21:46:56.548Z,1.46
2023-01-23T21:50:00.954Z,1.45
2023-01-23T21:53:04.276Z,1.49
2023-01-23T21:56:09.723Z,1.45
2023-01-23T21:59:12.972Z,1.44
2023-01-23T22:02:16.987Z,1.38
2023-01-23T22:05:22.007Z,1.35
2023-01-23T22:08:25.625Z,1.35
2023-01-23T22:11:28.665Z,1.39
2023-01-23T22:14:32.403Z,1.44
2023-01-23T22:17:35.964Z,1.46
2023-01-23T22:20:42.025Z,1.44
2023-01-23T22:23:45.559Z,1.41
2023-01-23T22:26:51.489Z,1.38
2023-01-23T22:29:55.239Z,1.37
2023-01-23T22:32:58.652Z,1.29
2023-01-23T22:36:08.080Z,1.37
2023-01-23T22:39:20.166Z,1.36
2023-01-23T22:42:24.903Z,1.29
2023-01-23T22:45:29.917Z,1.25
2023-01-23T22:48:34.676Z,1.24
2023-01-23T22:51:39.156Z,1.22
2023-01-23T22:54:42.966Z,1.20
2023-01-23T22:57:46.394Z,1.29
2023-01-23T23:00:52.382Z,1.31
2023-01-23T23:03:59.524Z,1.32
2023-01-23T23:07:03.942Z,1.30
2023-01-23T23:10:14.166Z,1.23
2023-01-23T23:13:18.699Z,1.20
2023-01-23T23:16:25.894Z,1.21
2023-01-23T23:19:29.031Z,1.19
2023-01-23T23:22:35.588Z,1.18
2023-01-23T23:25:38.963Z,1.12
2023-01-23T23:28:42.958Z,1.10
2023-01-23T23:31:47.110Z,1.04
2023-01-23T23:34:50.287Z,1.04
2023-01-23T23:37:54.863Z,1.07
2023-01-23T23:41:02.311Z,1.04
2023-01-23T23:44:05.664Z,1.00
2023-01-23T23:47:13.685Z,1.03
2023-01-23T23:50:18.002Z,0.98
2023-01-23T23:53:23.679Z,0.98
2023-01-23T23:56:32.151Z,0.98
2023-01-23T23:59:35.281Z,1.00
